sensor_id;sensor_type;location;lat;lon;timestamp;pressure;altitude;pressure_sealevel;temperature;humidity
36284;BME280;56085;48.910;9.478;2023-07-24T00:02:23;97465.44;;;27.22;35.10
36284;BME280;56085;48.910;9.478;2023-07-24T00:04:49;97472.22;;;26.74;35.39
36284;BME280;56085;48.910;9.478;2023-07-24T00:07:14;97520.09;;;26.57;35.39
36284;BME280;56085;48.910;9.478;2023-07-24T00:09:39;97581.19;;;26.43;35.55
36284;BME280;56085;48.910;9.478;2023-07-24T00:12:05;97594.59;;;26.04;35.91
36284;BME280;56085;48.910;9.478;2023-07-24T00:14:30;97477.41;;;26.46;35.99
36284;BME280;56085;48.910;9.478;2023-07-24T00:16:55;97380.59;;;26.83;35.92
36284;BME280;56085;48.910;9.478;2023-07-24T00:19:21;97490.00;;;26.90;36.24
36284;BME280;56085;48.910;9.478;2023-07-24T00:21:46;97507.72;;;26.55;36.06
36284;BME280;56085;48.910;9.478;2023-07-24T00:24:11;97490.50;;;26.43;36.29
36284;BME280;56085;48.910;9.478;2023-07-24T00:26:37;97479.66;;;26.42;36.41
36284;BME280;56085;48.910;9.478;2023-07-24T00:29:02;97470.44;;;26.62;36.44
36284;BME280;56085;48.910;9.478;2023-07-24T00:31:27;97475.16;;;26.80;36.44
36284;BME280;56085;48.910;9.478;2023-07-24T00:33:52;97442.03;;;26.41;36.63
36284;BME280;56085;48.910;9.478;2023-07-24T00:36:18;97438.91;;;26.24;36.75
36284;BME280;56085;48.910;9.478;2023-07-24T00:38:43;97436.84;;;26.25;36.86
36284;BME280;56085;48.910;9.478;2023-07-24T00:41:08;97442.25;;;26.23;37.07
36284;BME280;56085;48.910;9.478;2023-07-24T00:43:33;97441.94;;;26.51;37.17
36284;BME280;56085;48.910;9.478;2023-07-24T00:45:59;97434.78;;;26.70;37.05
36284;BME280;56085;48.910;9.478;2023-07-24T00:48:24;97420.47;;;26.64;37.39
36284;BME280;56085;48.910;9.478;2023-07-24T00:50:50;97431.84;;;26.50;37.56
36284;BME280;56085;48.910;9.478;2023-07-24T00:53:16;97467.25;;;26.09;37.50
36284;BME280;56085;48.910;9.478;2023-07-24T00:55:42;97407.44;;;26.22;37.78
36284;BME280;56085;48.910;9.478;2023-07-24T00:58:10;97474.47;;;26.40;37.51
36284;BME280;56085;48.910;9.478;2023-07-24T01:00:37;97445.34;;;26.55;38.16
36284;BME280;56085;48.910;9.478;2023-07-24T01:03:03;97404.78;;;26.63;37.66
36284;BME280;56085;48.910;9.478;2023-07-24T01:05:28;97392.63;;;26.78;37.91
36284;BME280;56085;48.910;9.478;2023-07-24T01:07:54;97385.19;;;26.65;38.30
36284;BME280;56085;48.910;9.478;2023-07-24T01:10:19;97378.47;;;26.63;38.09
36284;BME280;56085;48.910;9.478;2023-07-24T01:15:34;97442.41;;;26.99;38.34
36284;BME280;56085;48.910;9.478;2023-07-24T01:18:06;97440.53;;;26.76;38.14
36284;BME280;56085;48.910;9.478;2023-07-24T01:20:35;97430.00;;;26.97;38.41
36284;BME280;56085;48.910;9.478;2023-07-24T01:23:21;97415.97;;;27.08;38.44
36284;BME280;56085;48.910;9.478;2023-07-24T01:25:58;97427.66;;;26.95;38.27
36284;BME280;56085;48.910;9.478;2023-07-24T01:28:25;97364.50;;;26.59;38.60
36284;BME280;56085;48.910;9.478;2023-07-24T01:30:50;97348.97;;;26.70;38.87
36284;BME280;56085;48.910;9.478;2023-07-24T01:33:16;97352.66;;;26.61;39.01
36284;BME280;56085;48.910;9.478;2023-07-24T01:35:43;97397.94;;;26.55;38.73
36284;BME280;56085;48.910;9.478;2023-07-24T01:38:13;97383.50;;;26.38;39.04
36284;BME280;56085;48.910;9.478;2023-07-24T01:40:40;97406.06;;;26.47;39.17
36284;BME280;56085;48.910;9.478;2023-07-24T01:43:05;97355.69;;;26.22;39.00
36284;BME280;56085;48.910;9.478;2023-07-24T01:45:30;97346.66;;;26.38;39.07
36284;BME280;56085;48.910;9.478;2023-07-24T01:47:57;97359.94;;;26.47;39.17
36284;BME280;56085;48.910;9.478;2023-07-24T01:50:22;97350.06;;;26.42;39.44
36284;BME280;56085;48.910;9.478;2023-07-24T01:52:47;97354.47;;;26.43;39.55
36284;BME280;56085;48.910;9.478;2023-07-24T01:55:13;97358.13;;;26.29;39.45
36284;BME280;56085;48.910;9.478;2023-07-24T01:57:38;97354.25;;;26.47;39.70
36284;BME280;56085;48.910;9.478;2023-07-24T02:00:04;97366.78;;;26.40;39.64
36284;BME280;56085;48.910;9.478;2023-07-24T02:02:29;97358.25;;;26.55;39.67
36284;BME280;56085;48.910;9.478;2023-07-24T02:04:54;97348.53;;;26.62;39.89
36284;BME280;56085;48.910;9.478;2023-07-24T02:07:19;97363.69;;;26.59;39.77
36284;BME280;56085;48.910;9.478;2023-07-24T02:09:45;97353.19;;;26.44;39.90
36284;BME280;56085;48.910;9.478;2023-07-24T02:12:10;97355.94;;;26.39;39.98
36284;BME280;56085;48.910;9.478;2023-07-24T02:14:35;97354.91;;;26.57;39.90
36284;BME280;56085;48.910;9.478;2023-07-24T02:17:00;97357.41;;;26.49;39.78
36284;BME280;56085;48.910;9.478;2023-07-24T02:19:26;97353.44;;;26.61;40.02
36284;BME280;56085;48.910;9.478;2023-07-24T02:21:51;97349.25;;;26.57;39.97
36284;BME280;56085;48.910;9.478;2023-07-24T02:24:16;97353.16;;;26.59;39.70
36284;BME280;56085;48.910;9.478;2023-07-24T02:26:41;97333.72;;;26.52;39.85
36284;BME280;56085;48.910;9.478;2023-07-24T02:29:07;97343.78;;;26.53;39.85
36284;BME280;56085;48.910;9.478;2023-07-24T02:31:34;97392.53;;;26.57;39.65
36284;BME280;56085;48.910;9.478;2023-07-24T02:33:59;97337.19;;;26.62;39.66
36284;BME280;56085;48.910;9.478;2023-07-24T02:36:24;97336.19;;;26.44;39.74
36284;BME280;56085;48.910;9.478;2023-07-24T02:38:49;97345.78;;;26.32;39.73
36284;BME280;56085;48.910;9.478;2023-07-24T02:41:15;97344.91;;;26.41;39.72
36284;BME280;56085;48.910;9.478;2023-07-24T02:43:40;97344.97;;;26.46;39.55
36284;BME280;56085;48.910;9.478;2023-07-24T02:46:05;97370.41;;;26.41;39.65
36284;BME280;56085;48.910;9.478;2023-07-24T02:48:31;97347.78;;;26.11;39.71
36284;BME280;56085;48.910;9.478;2023-07-24T02:50:56;97337.81;;;26.16;39.63
36284;BME280;56085;48.910;9.478;2023-07-24T02:53:21;97340.22;;;26.38;39.90
36284;BME280;56085;48.910;9.478;2023-07-24T02:55:46;97344.44;;;26.27;39.72
36284;BME280;56085;48.910;9.478;2023-07-24T02:58:12;97341.78;;;26.24;39.73
36284;BME280;56085;48.910;9.478;2023-07-24T03:00:38;97325.28;;;26.37;39.78
36284;BME280;56085;48.910;9.478;2023-07-24T03:03:03;97325.91;;;26.47;40.05
36284;BME280;56085;48.910;9.478;2023-07-24T03:05:29;97302.84;;;26.54;39.89
36284;BME280;56085;48.910;9.478;2023-07-24T03:07:54;97317.56;;;26.38;39.92
36284;BME280;56085;48.910;9.478;2023-07-24T03:10:19;97324.59;;;25.98;40.01
36284;BME280;56085;48.910;9.478;2023-07-24T03:12:44;97298.69;;;26.35;39.81
36284;BME280;56085;48.910;9.478;2023-07-24T03:15:10;97301.75;;;26.52;40.10
36284;BME280;56085;48.910;9.478;2023-07-24T03:17:35;97285.91;;;26.60;39.99
36284;BME280;56085;48.910;9.478;2023-07-24T03:20:14;97364.28;;;26.63;40.05
36284;BME280;56085;48.910;9.478;2023-07-24T03:22:43;97369.91;;;26.42;40.10
36284;BME280;56085;48.910;9.478;2023-07-24T03:25:08;97300.00;;;26.19;40.09
36284;BME280;56085;48.910;9.478;2023-07-24T03:27:34;97276.53;;;26.33;40.27
36284;BME280;56085;48.910;9.478;2023-07-24T03:29:59;97276.97;;;26.46;40.52
36284;BME280;56085;48.910;9.478;2023-07-24T03:32:24;97284.53;;;26.35;40.27
36284;BME280;56085;48.910;9.478;2023-07-24T03:34:50;97275.59;;;26.21;40.17
36284;BME280;56085;48.910;9.478;2023-07-24T03:37:15;97270.97;;;26.24;40.54
36284;BME280;56085;48.910;9.478;2023-07-24T03:39:40;97276.81;;;26.00;40.51
36284;BME280;56085;48.910;9.478;2023-07-24T03:42:05;97265.88;;;26.28;40.63
36284;BME280;56085;48.910;9.478;2023-07-24T03:44:31;97268.34;;;26.20;40.59
36284;BME280;56085;48.910;9.478;2023-07-24T03:46:56;97268.09;;;26.18;40.70
36284;BME280;56085;48.910;9.478;2023-07-24T03:49:21;97276.84;;;26.20;40.75
36284;BME280;56085;48.910;9.478;2023-07-24T03:51:47;97282.97;;;26.34;40.64
36284;BME280;56085;48.910;9.478;2023-07-24T03:54:13;97288.38;;;26.17;40.53
36284;BME280;56085;48.910;9.478;2023-07-24T03:56:38;97291.69;;;26.15;40.75
36284;BME280;56085;48.910;9.478;2023-07-24T03:59:04;97299.75;;;26.02;40.71
36284;BME280;56085;48.910;9.478;2023-07-24T04:01:30;97298.56;;;25.93;40.83
36284;BME280;56085;48.910;9.478;2023-07-24T04:03:55;97290.84;;;26.09;40.89
36284;BME280;56085;48.910;9.478;2023-07-24T04:06:20;97289.75;;;26.21;40.78
36284;BME280;56085;48.910;9.478;2023-07-24T04:08:46;97284.41;;;26.08;40.92
36284;BME280;56085;48.910;9.478;2023-07-24T04:11:11;97273.63;;;26.27;40.91
36284;BME280;56085;48.910;9.478;2023-07-24T04:13:36;97279.66;;;26.56;40.97
36284;BME280;56085;48.910;9.478;2023-07-24T04:16:02;97274.25;;;26.73;41.01
36284;BME280;56085;48.910;9.478;2023-07-24T04:18:27;97268.22;;;26.86;40.65
36284;BME280;56085;48.910;9.478;2023-07-24T04:20:52;97279.41;;;26.74;40.83
36284;BME280;56085;48.910;9.478;2023-07-24T04:23:17;97279.69;;;26.97;40.67
36284;BME280;56085;48.910;9.478;2023-07-24T04:25:43;97272.75;;;26.98;40.52
36284;BME280;56085;48.910;9.478;2023-07-24T04:28:08;97268.78;;;26.90;40.95
36284;BME280;56085;48.910;9.478;2023-07-24T04:30:33;97263.19;;;27.22;40.50
36284;BME280;56085;48.910;9.478;2023-07-24T04:32:58;97258.69;;;27.09;40.75
36284;BME280;56085;48.910;9.478;2023-07-24T04:35:24;97252.84;;;27.18;40.67
36284;BME280;56085;48.910;9.478;2023-07-24T04:37:49;97250.81;;;27.19;40.78
36284;BME280;56085;48.910;9.478;2023-07-24T04:40:16;97250.38;;;27.26;40.59
36284;BME280;56085;48.910;9.478;2023-07-24T04:42:41;97242.22;;;27.34;41.04
36284;BME280;56085;48.910;9.478;2023-07-24T04:45:07;97241.47;;;27.39;40.98
36284;BME280;56085;48.910;9.478;2023-07-24T04:47:32;97229.34;;;27.39;40.92
36284;BME280;56085;48.910;9.478;2023-07-24T04:49:58;97228.69;;;27.29;40.82
36284;BME280;56085;48.910;9.478;2023-07-24T04:52:23;97232.09;;;27.33;40.92
36284;BME280;56085;48.910;9.478;2023-07-24T04:54:48;97217.03;;;27.47;40.81
36284;BME280;56085;48.910;9.478;2023-07-24T04:57:13;97222.88;;;27.64;40.86
36284;BME280;56085;48.910;9.478;2023-07-24T04:59:39;97236.19;;;27.26;40.63
36284;BME280;56085;48.910;9.478;2023-07-24T05:02:04;97224.84;;;27.52;40.39
36284;BME280;56085;48.910;9.478;2023-07-24T05:04:29;97225.25;;;27.40;40.36
36284;BME280;56085;48.910;9.478;2023-07-24T05:06:54;97231.50;;;27.49;40.73
36284;BME280;56085;48.910;9.478;2023-07-24T05:09:20;97239.53;;;27.83;40.27
36284;BME280;56085;48.910;9.478;2023-07-24T05:11:45;97231.59;;;27.93;40.56
36284;BME280;56085;48.910;9.478;2023-07-24T05:14:10;97225.00;;;27.75;40.74
36284;BME280;56085;48.910;9.478;2023-07-24T05:16:36;97234.00;;;27.68;40.46
36284;BME280;56085;48.910;9.478;2023-07-24T05:19:01;97219.91;;;28.17;40.73
36284;BME280;56085;48.910;9.478;2023-07-24T05:21:26;97216.56;;;28.18;40.60
36284;BME280;56085;48.910;9.478;2023-07-24T05:23:52;97217.22;;;28.02;40.64
36284;BME280;56085;48.910;9.478;2023-07-24T05:26:17;97221.88;;;27.99;40.87
36284;BME280;56085;48.910;9.478;2023-07-24T05:28:42;97214.84;;;28.38;40.42
36284;BME280;56085;48.910;9.478;2023-07-24T05:31:07;97220.59;;;28.49;40.59
36284;BME280;56085;48.910;9.478;2023-07-24T05:33:33;97220.69;;;28.61;40.59
36284;BME280;56085;48.910;9.478;2023-07-24T05:35:59;97233.19;;;28.86;40.52
36284;BME280;56085;48.910;9.478;2023-07-24T05:38:25;97214.81;;;28.93;40.41
36284;BME280;56085;48.910;9.478;2023-07-24T05:41:00;97296.44;;;29.24;40.29
36284;BME280;56085;48.910;9.478;2023-07-24T05:43:27;97223.75;;;29.29;40.00
36284;BME280;56085;48.910;9.478;2023-07-24T05:45:53;97207.59;;;28.92;40.03
36284;BME280;56085;48.910;9.478;2023-07-24T05:48:19;97240.50;;;29.15;40.00
36284;BME280;56085;48.910;9.478;2023-07-24T05:50:44;97233.31;;;29.25;40.09
36284;BME280;56085;48.910;9.478;2023-07-24T05:53:10;97242.09;;;29.28;39.94
36284;BME280;56085;48.910;9.478;2023-07-24T05:55:35;97249.63;;;29.42;40.30
36284;BME280;56085;48.910;9.478;2023-07-24T05:58:00;97247.81;;;29.39;40.22
36284;BME280;56085;48.910;9.478;2023-07-24T06:00:26;97249.13;;;29.55;39.95
36284;BME280;56085;48.910;9.478;2023-07-24T06:02:51;97268.28;;;29.54;40.08
36284;BME280;56085;48.910;9.478;2023-07-24T06:05:17;97271.41;;;29.56;40.29
36284;BME280;56085;48.910;9.478;2023-07-24T06:07:42;97266.75;;;29.59;39.97
36284;BME280;56085;48.910;9.478;2023-07-24T06:10:08;97268.81;;;29.53;39.92
36284;BME280;56085;48.910;9.478;2023-07-24T06:12:33;97273.47;;;29.56;39.78
36284;BME280;56085;48.910;9.478;2023-07-24T06:14:58;97286.00;;;29.04;39.83
36284;BME280;56085;48.910;9.478;2023-07-24T06:17:23;97276.72;;;29.15;39.77
36284;BME280;56085;48.910;9.478;2023-07-24T06:19:49;97287.44;;;29.42;39.56
36284;BME280;56085;48.910;9.478;2023-07-24T06:22:14;97280.13;;;29.24;39.57
36284;BME280;56085;48.910;9.478;2023-07-24T06:24:39;97281.72;;;29.48;39.34
36284;BME280;56085;48.910;9.478;2023-07-24T06:27:05;97277.09;;;29.62;39.10
36284;BME280;56085;48.910;9.478;2023-07-24T06:29:32;97271.19;;;29.88;39.44
36284;BME280;56085;48.910;9.478;2023-07-24T06:31:57;97268.59;;;29.90;39.44
36284;BME280;56085;48.910;9.478;2023-07-24T06:34:22;97244.72;;;30.16;39.06
36284;BME280;56085;48.910;9.478;2023-07-24T06:36:47;97249.38;;;30.42;39.18
36284;BME280;56085;48.910;9.478;2023-07-24T06:39:13;97238.22;;;30.44;39.24
36284;BME280;56085;48.910;9.478;2023-07-24T06:41:38;97247.00;;;30.57;39.21
36284;BME280;56085;48.910;9.478;2023-07-24T06:44:03;97236.94;;;30.45;39.19
36284;BME280;56085;48.910;9.478;2023-07-24T06:46:29;97240.47;;;30.74;38.96
36284;BME280;56085;48.910;9.478;2023-07-24T06:48:54;97225.44;;;30.68;39.10
36284;BME280;56085;48.910;9.478;2023-07-24T06:51:19;97228.22;;;30.85;38.73
36284;BME280;56085;48.910;9.478;2023-07-24T06:53:44;97212.88;;;30.93;38.73
36284;BME280;56085;48.910;9.478;2023-07-24T06:56:10;97216.75;;;30.96;38.78
36284;BME280;56085;48.910;9.478;2023-07-24T06:58:35;97214.66;;;31.02;38.58
36284;BME280;56085;48.910;9.478;2023-07-24T07:01:05;97310.75;;;31.36;38.47
36284;BME280;56085;48.910;9.478;2023-07-24T07:03:30;97211.47;;;31.11;38.53
36284;BME280;56085;48.910;9.478;2023-07-24T07:05:59;97304.56;;;31.26;38.06
36284;BME280;56085;48.910;9.478;2023-07-24T07:08:24;97211.84;;;30.91;38.08
36284;BME280;56085;48.910;9.478;2023-07-24T07:10:55;97312.97;;;30.95;37.95
36284;BME280;56085;48.910;9.478;2023-07-24T07:13:20;97217.06;;;30.81;37.76
36284;BME280;56085;48.910;9.478;2023-07-24T07:15:46;97224.34;;;30.76;37.72
36284;BME280;56085;48.910;9.478;2023-07-24T07:18:11;97223.56;;;30.81;37.57
36284;BME280;56085;48.910;9.478;2023-07-24T07:20:36;97225.88;;;30.89;37.43
36284;BME280;56085;48.910;9.478;2023-07-24T07:23:01;97220.38;;;30.96;37.25
36284;BME280;56085;48.910;9.478;2023-07-24T07:25:27;97232.38;;;30.78;37.02
36284;BME280;56085;48.910;9.478;2023-07-24T07:27:52;97226.41;;;30.87;37.16
36284;BME280;56085;48.910;9.478;2023-07-24T07:30:17;97220.91;;;30.89;36.92
36284;BME280;56085;48.910;9.478;2023-07-24T07:32:42;97239.97;;;30.70;36.70
36284;BME280;56085;48.910;9.478;2023-07-24T07:35:08;97248.75;;;30.72;36.71
36284;BME280;56085;48.910;9.478;2023-07-24T07:37:33;97266.47;;;30.36;36.50
36284;BME280;56085;48.910;9.478;2023-07-24T07:39:58;97272.19;;;30.19;36.47
36284;BME280;56085;48.910;9.478;2023-07-24T07:42:23;97246.31;;;30.06;36.13
36284;BME280;56085;48.910;9.478;2023-07-24T07:44:49;97263.13;;;30.43;36.28
36284;BME280;56085;48.910;9.478;2023-07-24T07:47:14;97241.66;;;30.03;36.38
36284;BME280;56085;48.910;9.478;2023-07-24T07:49:39;97293.91;;;29.49;36.05
36284;BME280;56085;48.910;9.478;2023-07-24T07:52:05;97309.72;;;29.61;35.81
36284;BME280;56085;48.910;9.478;2023-07-24T07:54:31;97292.09;;;29.46;36.01
36284;BME280;56085;48.910;9.478;2023-07-24T07:56:56;97301.44;;;29.57;35.96
36284;BME280;56085;48.910;9.478;2023-07-24T07:59:21;97326.25;;;29.46;35.71
36284;BME280;56085;48.910;9.478;2023-07-24T08:01:47;97323.19;;;29.60;35.81
36284;BME280;56085;48.910;9.478;2023-07-24T08:04:12;97324.53;;;29.82;35.75
36284;BME280;56085;48.910;9.478;2023-07-24T08:06:37;97310.03;;;30.03;35.54
36284;BME280;56085;48.910;9.478;2023-07-24T08:09:02;97330.94;;;29.66;35.43
36284;BME280;56085;48.910;9.478;2023-07-24T08:11:28;97314.94;;;30.19;35.57
36284;BME280;56085;48.910;9.478;2023-07-24T08:13:53;97327.63;;;29.84;35.86
36284;BME280;56085;48.910;9.478;2023-07-24T08:16:18;97343.97;;;30.18;35.46
36284;BME280;56085;48.910;9.478;2023-07-24T08:18:47;97402.03;;;30.20;35.45
36284;BME280;56085;48.910;9.478;2023-07-24T08:21:15;97366.25;;;30.31;35.49
36284;BME280;56085;48.910;9.478;2023-07-24T08:23:41;97356.41;;;30.20;35.55
36284;BME280;56085;48.910;9.478;2023-07-24T08:26:07;97343.47;;;30.02;35.52
36284;BME280;56085;48.910;9.478;2023-07-24T08:28:32;97345.22;;;29.77;35.31
36284;BME280;56085;48.910;9.478;2023-07-24T08:30:59;97341.31;;;29.74;35.49
36284;BME280;56085;48.910;9.478;2023-07-24T08:33:27;97339.47;;;29.49;35.18
36284;BME280;56085;48.910;9.478;2023-07-24T08:36:00;97387.63;;;29.52;35.43
36284;BME280;56085;48.910;9.478;2023-07-24T08:38:25;97346.44;;;29.48;35.36
36284;BME280;56085;48.910;9.478;2023-07-24T08:41:05;97382.56;;;29.85;35.41
36284;BME280;56085;48.910;9.478;2023-07-24T08:43:33;97373.31;;;29.30;35.40
36284;BME280;56085;48.910;9.478;2023-07-24T08:45:59;97331.81;;;29.17;35.88
36284;BME280;56085;48.910;9.478;2023-07-24T08:48:34;97349.75;;;29.23;35.77
36284;BME280;56085;48.910;9.478;2023-07-24T08:51:09;97345.03;;;29.20;35.86
36284;BME280;56085;48.910;9.478;2023-07-24T08:53:39;97347.63;;;29.18;35.82
36284;BME280;56085;48.910;9.478;2023-07-24T08:56:07;97327.53;;;29.45;35.94
36284;BME280;56085;48.910;9.478;2023-07-24T08:58:33;97265.72;;;29.62;36.04
36284;BME280;56085;48.910;9.478;2023-07-24T09:00:59;97291.31;;;29.45;36.21
36284;BME280;56085;48.910;9.478;2023-07-24T09:03:25;97258.50;;;29.89;36.16
36284;BME280;56085;48.910;9.478;2023-07-24T09:05:51;97242.09;;;30.35;36.48
36284;BME280;56085;48.910;9.478;2023-07-24T09:08:17;97230.16;;;30.37;36.49
36284;BME280;56085;48.910;9.478;2023-07-24T09:10:53;97238.47;;;30.46;36.42
36284;BME280;56085;48.910;9.478;2023-07-24T09:13:18;97207.19;;;30.88;36.69
36284;BME280;56085;48.910;9.478;2023-07-24T09:15:43;97209.50;;;30.89;36.64
36284;BME280;56085;48.910;9.478;2023-07-24T09:18:09;97206.00;;;31.19;36.29
36284;BME280;56085;48.910;9.478;2023-07-24T09:20:42;97307.25;;;31.60;36.64
36284;BME280;56085;48.910;9.478;2023-07-24T09:23:09;97236.09;;;31.20;36.63
36284;BME280;56085;48.910;9.478;2023-07-24T09:25:36;97253.94;;;31.26;36.40
36284;BME280;56085;48.910;9.478;2023-07-24T09:28:15;97304.41;;;31.96;36.52
36284;BME280;56085;48.910;9.478;2023-07-24T09:30:41;97233.31;;;32.17;36.79
36284;BME280;56085;48.910;9.478;2023-07-24T09:33:07;97224.28;;;32.57;36.50
36284;BME280;56085;48.910;9.478;2023-07-24T09:35:33;97213.69;;;32.95;36.40
36284;BME280;56085;48.910;9.478;2023-07-24T09:38:06;97303.00;;;33.51;36.31
36284;BME280;56085;48.910;9.478;2023-07-24T09:40:42;97273.19;;;33.02;36.32
36284;BME280;56085;48.910;9.478;2023-07-24T09:43:21;97312.75;;;33.23;35.99
36284;BME280;56085;48.910;9.478;2023-07-24T09:45:48;97250.16;;;31.90;36.10
36284;BME280;56085;48.910;9.478;2023-07-24T09:48:14;97268.75;;;32.33;35.95
36284;BME280;56085;48.910;9.478;2023-07-24T09:50:48;97318.41;;;32.60;35.76
36284;BME280;56085;48.910;9.478;2023-07-24T09:53:19;97339.81;;;32.23;36.20
36284;BME280;56085;48.910;9.478;2023-07-24T09:55:59;97332.97;;;31.96;35.95
36284;BME280;56085;48.910;9.478;2023-07-24T09:58:26;97253.19;;;31.98;35.88
36284;BME280;56085;48.910;9.478;2023-07-24T10:00:53;97290.34;;;31.98;35.79
36284;BME280;56085;48.910;9.478;2023-07-24T10:03:18;97255.28;;;31.25;36.07
36284;BME280;56085;48.910;9.478;2023-07-24T10:05:46;97261.63;;;31.01;35.86
36284;BME280;56085;48.910;9.478;2023-07-24T10:08:11;97280.66;;;31.35;36.11
36284;BME280;56085;48.910;9.478;2023-07-24T10:10:38;97337.69;;;31.57;35.94
36284;BME280;56085;48.910;9.478;2023-07-24T10:13:04;97280.75;;;31.65;36.13
36284;BME280;56085;48.910;9.478;2023-07-24T10:15:31;97316.66;;;31.49;36.14
36284;BME280;56085;48.910;9.478;2023-07-24T10:18:07;97375.00;;;31.01;36.36
36284;BME280;56085;48.910;9.478;2023-07-24T10:20:37;97397.59;;;30.87;36.28
36284;BME280;56085;48.910;9.478;2023-07-24T10:23:04;97330.44;;;30.63;36.33
36284;BME280;56085;48.910;9.478;2023-07-24T10:25:33;97326.00;;;30.85;36.51
36284;BME280;56085;48.910;9.478;2023-07-24T10:28:09;97409.03;;;30.81;36.34
36284;BME280;56085;48.910;9.478;2023-07-24T10:30:36;97353.03;;;30.56;36.48
36284;BME280;56085;48.910;9.478;2023-07-24T10:33:09;97387.25;;;30.56;36.55
36284;BME280;56085;48.910;9.478;2023-07-24T10:35:42;97406.94;;;30.76;36.68
36284;BME280;56085;48.910;9.478;2023-07-24T10:38:08;97337.75;;;29.91;36.69
36284;BME280;56085;48.910;9.478;2023-07-24T10:40:34;97333.09;;;30.39;36.83
36284;BME280;56085;48.910;9.478;2023-07-24T10:46:00;97393.75;;;30.51;36.86
36284;BME280;56085;48.910;9.478;2023-07-24T10:48:25;97343.69;;;29.87;37.01
36284;BME280;56085;48.910;9.478;2023-07-24T10:50:51;97322.16;;;29.75;37.14
36284;BME280;56085;48.910;9.478;2023-07-24T10:53:18;97370.91;;;29.88;37.17
36284;BME280;56085;48.910;9.478;2023-07-24T10:55:45;97356.41;;;30.09;37.31
36284;BME280;56085;48.910;9.478;2023-07-24T10:58:12;97374.69;;;29.63;37.60
36284;BME280;56085;48.910;9.478;2023-07-24T11:00:42;97369.50;;;29.44;37.41
36284;BME280;56085;48.910;9.478;2023-07-24T11:03:11;97433.38;;;29.37;37.42
36284;BME280;56085;48.910;9.478;2023-07-24T11:05:41;97408.81;;;29.40;37.51
36284;BME280;56085;48.910;9.478;2023-07-24T11:08:14;97430.63;;;29.54;37.74
36284;BME280;56085;48.910;9.478;2023-07-24T11:10:48;97443.09;;;29.19;38.06
36284;BME280;56085;48.910;9.478;2023-07-24T11:13:14;97365.41;;;29.02;38.35
36284;BME280;56085;48.910;9.478;2023-07-24T11:15:40;97383.69;;;28.89;38.10
36284;BME280;56085;48.910;9.478;2023-07-24T11:18:05;97366.06;;;28.85;38.35
36284;BME280;56085;48.910;9.478;2023-07-24T11:20:37;97409.50;;;28.48;38.58
36284;BME280;56085;48.910;9.478;2023-07-24T11:23:02;97362.91;;;28.34;38.86
36284;BME280;56085;48.910;9.478;2023-07-24T11:25:28;97353.78;;;28.25;38.93
36284;BME280;56085;48.910;9.478;2023-07-24T11:27:53;97349.41;;;28.29;38.68
36284;BME280;56085;48.910;9.478;2023-07-24T11:30:20;97336.63;;;28.13;38.92
36284;BME280;56085;48.910;9.478;2023-07-24T11:32:46;97275.44;;;28.18;39.34
36284;BME280;56085;48.910;9.478;2023-07-24T11:35:11;97261.63;;;28.43;39.45
36284;BME280;56085;48.910;9.478;2023-07-24T11:37:37;97235.41;;;28.65;39.88
36284;BME280;56085;48.910;9.478;2023-07-24T11:40:03;97280.81;;;28.48;39.74
36284;BME280;56085;48.910;9.478;2023-07-24T11:42:39;97314.06;;;28.36;39.94
36284;BME280;56085;48.910;9.478;2023-07-24T11:45:06;97256.38;;;28.24;39.83
36284;BME280;56085;48.910;9.478;2023-07-24T11:47:44;97271.28;;;28.56;39.67
36284;BME280;56085;48.910;9.478;2023-07-24T11:50:10;97191.16;;;28.52;40.10
36284;BME280;56085;48.910;9.478;2023-07-24T11:52:39;97255.44;;;28.93;40.10
36284;BME280;56085;48.910;9.478;2023-07-24T11:55:05;97203.22;;;28.96;40.10
36284;BME280;56085;48.910;9.478;2023-07-24T11:57:31;97206.94;;;29.48;40.16
36284;BME280;56085;48.910;9.478;2023-07-24T11:59:56;97187.50;;;29.74;40.29
36284;BME280;56085;48.910;9.478;2023-07-24T12:02:27;97290.03;;;30.59;39.96
36284;BME280;56085;48.910;9.478;2023-07-24T12:04:55;97244.50;;;30.03;40.17
36284;BME280;56085;48.910;9.478;2023-07-24T12:07:21;97210.81;;;29.56;40.11
36284;BME280;56085;48.910;9.478;2023-07-24T12:09:51;97283.56;;;29.74;40.01
36284;BME280;56085;48.910;9.478;2023-07-24T12:12:17;97223.16;;;29.07;40.09
36284;BME280;56085;48.910;9.478;2023-07-24T12:14:43;97243.78;;;28.80;40.56
36284;BME280;56085;48.910;9.478;2023-07-24T12:17:08;97217.50;;;28.53;40.23
36284;BME280;56085;48.910;9.478;2023-07-24T12:19:37;97251.13;;;28.60;40.31
36284;BME280;56085;48.910;9.478;2023-07-24T12:22:03;97248.53;;;28.56;40.54
36284;BME280;56085;48.910;9.478;2023-07-24T12:24:29;97244.75;;;28.65;40.91
36284;BME280;56085;48.910;9.478;2023-07-24T12:26:54;97233.91;;;28.26;40.94
36284;BME280;56085;48.910;9.478;2023-07-24T12:29:19;97253.16;;;28.48;40.43
36284;BME280;56085;48.910;9.478;2023-07-24T12:31:45;97249.13;;;28.61;40.78
36284;BME280;56085;48.910;9.478;2023-07-24T12:34:10;97252.34;;;28.97;40.65
36284;BME280;56085;48.910;9.478;2023-07-24T12:36:35;97248.72;;;28.96;40.76
36284;BME280;56085;48.910;9.478;2023-07-24T12:39:01;97273.94;;;28.66;40.99
36284;BME280;56085;48.910;9.478;2023-07-24T12:41:27;97266.81;;;28.44;40.48
36284;BME280;56085;48.910;9.478;2023-07-24T12:43:52;97297.06;;;28.47;40.88
36284;BME280;56085;48.910;9.478;2023-07-24T12:46:18;97268.63;;;28.90;40.94
36284;BME280;56085;48.910;9.478;2023-07-24T12:48:43;97250.63;;;29.28;40.63
36284;BME280;56085;48.910;9.478;2023-07-24T12:51:08;97248.06;;;29.47;40.85
36284;BME280;56085;48.910;9.478;2023-07-24T12:53:34;97254.03;;;29.43;40.63
36284;BME280;56085;48.910;9.478;2023-07-24T12:55:59;97236.72;;;29.58;40.56
36284;BME280;56085;48.910;9.478;2023-07-24T12:58:24;97241.94;;;29.93;40.55
36284;BME280;56085;48.910;9.478;2023-07-24T13:00:49;97244.22;;;29.44;40.48
36284;BME280;56085;48.910;9.478;2023-07-24T13:03:15;97210.84;;;29.96;40.57